createdAt,value
2023-02-20T00:24:35.235Z,2.93
2023-02-20T00:26:10.393Z,2.95
2023-02-20T00:27:37.579Z,3.02
2023-02-20T00:29:02.750Z,3.05
2023-02-20T00:30:26.408Z,3.14
2023-02-20T00:31:55.370Z,3.20
2023-02-20T00:33:16.942Z,3.25
2023-02-20T00:34:39.349Z,3.30
2023-02-20T00:36:13.904Z,3.36
2023-02-20T00:37:39.439Z,3.28
2023-02-20T00:39:11.983Z,3.40
2023-02-20T00:40:44.644Z,3.45
2023-02-20T00:42:10.979Z,3.48
2023-02-20T00:43:42.210Z,3.55
2023-02-20T00:45:20.727Z,3.50
2023-02-20T00:46:43.809Z,3.56
2023-02-20T00:48:20.060Z,3.59
2023-02-20T00:49:42.582Z,3.62
2023-02-20T00:51:10.884Z,3.71
2023-02-20T00:52:44.738Z,3.64
2023-02-20T00:54:08.250Z,3.66
2023-02-20T00:56:00.615Z,3.76
2023-02-20T00:57:38.235Z,3.80
2023-02-20T00:59:02.462Z,3.82
2023-02-20T01:00:27.264Z,3.84
2023-02-20T01:01:50.100Z,3.86
2023-02-20T01:03:13.299Z,3.86
2023-02-20T01:04:40.945Z,3.91
2023-02-20T01:06:07.548Z,3.84
2023-02-20T01:07:33.600Z,3.92
2023-02-20T01:09:15.055Z,3.97
2023-02-20T01:10:44.240Z,3.95
2023-02-20T01:12:06.469Z,3.96
2023-02-20T01:13:34.691Z,4.04
2023-02-20T01:15:04.126Z,3.99
2023-02-20T01:16:32.735Z,3.97
2023-02-20T01:18:08.792Z,3.99
2023-02-20T01:19:35.839Z,4.03
2023-02-20T01:21:03.101Z,4.12
2023-02-20T01:22:25.104Z,4.04
2023-02-20T01:23:50.833Z,4.14
2023-02-20T01:25:17.365Z,4.14
2023-02-20T01:26:52.849Z,4.13
2023-02-20T01:28:15.809Z,4.09
2023-02-20T01:29:41.877Z,4.19
2023-02-20T01:31:05.774Z,4.15
2023-02-20T01:32:28.835Z,4.16
2023-02-20T01:33:54.750Z,4.16
2023-02-20T01:35:16.666Z,4.19
2023-02-20T01:36:39.568Z,4.25
2023-02-20T01:38:01.436Z,4.26
2023-02-20T01:39:26.534Z,4.24
2023-02-20T01:40:49.157Z,4.22
2023-02-20T01:42:22.917Z,4.23
2023-02-20T01:43:45.789Z,4.21
2023-02-20T01:45:19.865Z,4.25
2023-02-20T01:46:51.655Z,4.20
2023-02-20T01:48:22.453Z,4.29
2023-02-20T01:49:49.358Z,4.30
2023-02-20T01:51:19.776Z,4.29
2023-02-20T01:52:44.863Z,4.30
2023-02-20T01:54:11.402Z,4.31
2023-02-20T01:58:22.673Z,4.20
2023-02-20T01:59:50.521Z,4.25
2023-02-20T02:01:15.645Z,4.27
2023-02-20T02:02:42.336Z,4.27
2023-02-20T02:04:09.818Z,4.28
2023-02-20T02:05:35.384Z,4.31
2023-02-20T02:06:57.011Z,4.30
2023-02-20T02:08:21.498Z,4.31
2023-02-20T02:09:49.226Z,4.31
2023-02-20T02:11:13.186Z,4.32
2023-02-20T02:12:39.165Z,4.31
2023-02-20T02:14:01.052Z,4.27
2023-02-20T02:15:28.105Z,4.31
2023-02-20T02:17:03.440Z,4.26
2023-02-20T02:18:45.970Z,4.27
2023-02-20T02:20:56.957Z,4.24
2023-02-20T02:23:07.195Z,4.24
2023-02-20T02:25:06.346Z,4.25
2023-02-20T02:26:51.258Z,4.24
2023-02-20T02:28:56.949Z,4.21
2023-02-20T02:31:02.069Z,4.19
2023-02-20T02:33:07.771Z,4.16
2023-02-20T02:35:10.463Z,4.09
2023-02-20T02:37:24.904Z,3.97
2023-02-20T02:39:29.435Z,4.04
2023-02-20T02:41:17.567Z,3.91
2023-02-20T02:43:11.240Z,3.93
2023-02-20T02:45:27.907Z,3.89
2023-02-20T02:47:09.149Z,3.86
2023-02-20T02:49:12.103Z,3.88
2023-02-20T02:50:51.780Z,3.83
2023-02-20T02:52:51.142Z,3.82
2023-02-20T02:54:45.358Z,3.78
2023-02-20T02:56:32.205Z,3.78
2023-02-20T02:58:08.539Z,3.78
2023-02-20T02:59:45.105Z,3.82
2023-02-20T03:01:23.974Z,3.75
2023-02-20T03:03:07.210Z,3.73
2023-02-20T03:05:29.692Z,3.72
2023-02-20T03:07:28.073Z,3.80
2023-02-20T03:09:50.288Z,3.66
2023-02-20T03:11:48.792Z,3.68
2023-02-20T03:13:43.844Z,3.72
2023-02-20T03:15:45.846Z,3.74
2023-02-20T03:17:37.229Z,3.70
2023-02-20T03:19:14.762Z,3.73
2023-02-20T03:21:27.244Z,3.71
2023-02-20T03:23:14.086Z,3.72
2023-02-20T03:25:02.711Z,3.66
2023-02-20T03:27:13.492Z,3.76
2023-02-20T03:28:54.228Z,3.78
2023-02-20T03:30:25.273Z,3.78
2023-02-20T03:32:40.709Z,3.74
2023-02-20T03:34:25.553Z,3.84
2023-02-20T03:36:07.765Z,3.87
2023-02-20T03:37:52.574Z,3.91
2023-02-20T03:39:39.172Z,3.95
2023-02-20T03:41:21.912Z,3.97
2023-02-20T03:43:06.895Z,4.01
2023-02-20T03:44:35.903Z,4.04
2023-02-20T03:46:02.759Z,4.07
2023-02-20T03:47:30.058Z,4.12
2023-02-20T03:48:57.538Z,4.07
2023-02-20T03:50:46.883Z,4.12
2023-02-20T03:52:10.051Z,4.20
2023-02-20T03:53:33.780Z,4.22
2023-02-20T03:54:58.044Z,4.24
2023-02-20T03:56:24.992Z,4.23
2023-02-20T03:57:51.986Z,4.30
2023-02-20T03:59:17.873Z,4.31
2023-02-20T04:00:44.756Z,4.34
2023-02-20T04:02:12.803Z,4.37
2023-02-20T04:03:40.482Z,4.38
2023-02-20T04:05:06.585Z,4.38
2023-02-20T04:06:35.664Z,4.40
2023-02-20T04:08:01.618Z,4.42
2023-02-20T04:09:29.432Z,4.43
2023-02-20T04:10:58.087Z,4.43
2023-02-20T04:12:26.038Z,4.44
2023-02-20T04:13:54.758Z,4.45
2023-02-20T04:15:19.453Z,4.43
2023-02-20T04:16:49.161Z,4.45
2023-02-20T04:18:14.366Z,4.44
2023-02-20T04:19:39.906Z,4.46
2023-02-20T04:21:37.057Z,4.39
2023-02-20T04:23:07.976Z,4.39
2023-02-20T04:24:33.179Z,4.43
2023-02-20T04:26:00.320Z,4.42
2023-02-20T04:27:27.096Z,4.39
2023-02-20T04:28:52.195Z,4.40
2023-02-20T04:30:15.306Z,4.40
2023-02-20T04:31:37.071Z,4.40
2023-02-20T04:33:03.220Z,4.39
2023-02-20T04:34:25.262Z,4.35
2023-02-20T04:35:50.270Z,4.43
2023-02-20T04:37:15.307Z,4.34
2023-02-20T04:38:39.770Z,4.42
2023-02-20T04:40:06.654Z,4.45
2023-02-20T04:41:30.811Z,4.47
2023-02-20T04:42:55.831Z,4.47
2023-02-20T04:44:39.987Z,4.50
2023-02-20T04:46:04.090Z,4.48
2023-02-20T04:47:26.554Z,4.52
2023-02-20T04:48:49.141Z,4.51
2023-02-20T04:50:14.371Z,4.53
2023-02-20T04:51:41.981Z,4.53
2023-02-20T04:53:03.964Z,4.55
2023-02-20T04:54:27.553Z,4.57
2023-02-20T04:56:01.957Z,4.57
2023-02-20T04:57:25.401Z,4.58
2023-02-20T04:58:53.238Z,4.50
2023-02-20T05:00:36.422Z,4.50
2023-02-20T05:02:01.284Z,4.63
2023-02-20T05:03:29.973Z,4.57
2023-02-20T05:04:55.319Z,4.59
2023-02-20T05:06:27.121Z,4.66
2023-02-20T05:07:59.365Z,4.64
2023-02-20T05:09:27.339Z,4.59
2023-02-20T05:10:54.985Z,4.62
2023-02-20T05:12:19.537Z,4.69
2023-02-20T05:13:42.104Z,4.64
2023-02-20T05:15:08.840Z,4.69
2023-02-20T05:16:30.393Z,4.73
2023-02-20T05:17:53.200Z,4.75
2023-02-20T05:19:18.101Z,4.78
2023-02-20T05:20:57.919Z,4.76
2023-02-20T05:22:23.587Z,4.73
2023-02-20T05:23:47.193Z,4.81
2023-02-20T05:25:15.094Z,4.82
2023-02-20T05:26:36.567Z,4.83
2023-02-20T05:27:59.603Z,4.84
2023-02-20T05:29:24.266Z,4.85
2023-02-20T05:30:49.568Z,4.87
2023-02-20T05:32:10.918Z,4.85
2023-02-20T05:33:33.442Z,4.84
2023-02-20T05:34:56.167Z,4.91
2023-02-20T05:36:17.733Z,4.91
2023-02-20T05:37:40.271Z,4.90
2023-02-20T05:39:01.682Z,4.92
2023-02-20T05:40:24.466Z,4.92
2023-02-20T05:41:49.981Z,4.93
2023-02-20T05:43:11.601Z,4.94
2023-02-20T05:44:39.260Z,4.87
2023-02-20T05:46:03.543Z,4.91
2023-02-20T05:47:25.952Z,4.92
2023-02-20T05:48:52.652Z,4.99
2023-02-20T05:50:17.281Z,4.99
2023-02-20T05:51:40.288Z,5.01
2023-02-20T05:53:11.137Z,5.02
2023-02-20T05:54:34.016Z,4.99
2023-02-20T05:56:00.120Z,4.97
2023-02-20T05:57:31.606Z,4.97
2023-02-20T05:58:57.599Z,5.07
2023-02-20T06:00:34.811Z,4.99
2023-02-20T06:02:08.715Z,5.00
2023-02-20T06:03:32.994Z,5.09
2023-02-20T06:04:56.902Z,5.08
2023-02-20T06:06:30.728Z,5.04
2023-02-20T06:08:02.322Z,5.14
2023-02-20T06:09:25.091Z,5.16
2023-02-20T06:10:49.170Z,5.17
2023-02-20T06:12:12.169Z,5.19
2023-02-20T06:13:38.747Z,5.20
2023-02-20T06:15:03.008Z,5.22
2023-02-20T06:16:30.068Z,5.16
2023-02-20T06:17:57.122Z,5.23
2023-02-20T06:19:29.782Z,5.24
2023-02-20T06:20:51.077Z,5.32
2023-02-20T06:22:51.180Z,5.32
2023-02-20T06:24:32.845Z,5.40
2023-02-20T06:26:04.759Z,5.43
2023-02-20T06:27:27.006Z,5.49
2023-02-20T06:28:53.331Z,5.48
2023-02-20T06:30:16.028Z,5.56
2023-02-20T06:31:46.004Z,5.60
2023-02-20T06:33:12.100Z,5.64
2023-02-20T06:34:34.777Z,5.61
2023-02-20T06:35:56.098Z,5.68
2023-02-20T06:37:26.280Z,5.71
2023-02-20T06:38:48.535Z,5.74
2023-02-20T06:40:12.040Z,5.83
2023-02-20T06:41:34.616Z,5.85
2023-02-20T06:42:57.380Z,5.88
2023-02-20T06:44:22.887Z,5.90
2023-02-20T06:45:45.800Z,5.95
2023-02-20T06:47:09.344Z,5.97
2023-02-20T06:48:33.500Z,6.00
2023-02-20T06:49:56.145Z,6.02
2023-02-20T06:51:27.569Z,6.06
2023-02-20T06:53:24.759Z,5.99
2023-02-20T06:55:26.749Z,6.06
2023-02-20T06:57:48.897Z,6.21
2023-02-20T06:59:39.868Z,6.39
2023-02-20T07:01:02.234Z,6.49
2023-02-20T07:02:24.718Z,6.54
2023-02-20T07:03:50.206Z,6.58
2023-02-20T07:05:13.173Z,6.56
2023-02-20T07:08:24.223Z,6.55
2023-02-20T07:09:46.651Z,6.62
2023-02-20T07:11:10.214Z,6.59
2023-02-20T07:12:38.056Z,6.62
2023-02-20T07:14:05.173Z,6.58
2023-02-20T07:15:39.438Z,6.65
2023-02-20T07:17:13.086Z,6.65
2023-02-20T07:18:42.856Z,6.67
2023-02-20T07:20:28.044Z,6.68
2023-02-20T07:22:30.155Z,6.71
2023-02-20T07:23:53.710Z,6.63
2023-02-20T07:26:51.846Z,6.73
2023-02-20T07:31:12.230Z,6.71
2023-02-20T07:32:50.277Z,6.79
2023-02-20T07:34:22.021Z,6.73
2023-02-20T07:35:47.244Z,6.70
2023-02-20T07:37:20.761Z,6.81
2023-02-20T07:38:44.174Z,6.79
2023-02-20T07:40:09.149Z,6.87
2023-02-20T07:41:33.058Z,6.87
2023-02-20T07:42:58.544Z,6.93
2023-02-20T07:44:28.252Z,7.04
2023-02-20T07:45:51.026Z,7.08
2023-02-20T07:47:13.675Z,7.13
2023-02-20T07:48:37.134Z,7.14
2023-02-20T07:49:59.723Z,7.23
2023-02-20T07:51:28.587Z,7.25
2023-02-20T07:52:58.895Z,7.36
2023-02-20T07:54:37.935Z,7.37
2023-02-20T07:56:13.311Z,7.43
2023-02-20T07:59:43.232Z,7.48
2023-02-20T08:01:10.608Z,7.54
2023-02-20T08:02:34.985Z,7.59
2023-02-20T08:03:57.845Z,7.64
2023-02-20T08:05:20.374Z,7.71
2023-02-20T08:06:47.341Z,7.77
2023-02-20T08:08:13.054Z,7.82
2023-02-20T08:09:39.585Z,7.85
2023-02-20T08:11:16.802Z,7.84
2023-02-20T08:12:46.651Z,7.91
2023-02-20T08:14:12.443Z,8.03
2023-02-20T08:15:50.861Z,8.07
2023-02-20T08:17:47.295Z,8.15
2023-02-20T08:19:10.107Z,8.16
2023-02-20T08:20:34.568Z,8.24
2023-02-20T08:22:03.250Z,8.28
2023-02-20T08:25:18.548Z,8.30
2023-02-20T08:26:47.477Z,8.43
2023-02-20T08:28:18.386Z,8.50
2023-02-20T08:30:01.835Z,8.55
2023-02-20T08:31:32.876Z,8.57
2023-02-20T08:33:13.928Z,8.71
2023-02-20T08:35:18.837Z,8.79
2023-02-20T08:36:59.760Z,8.88
2023-02-20T08:38:40.337Z,8.94
2023-02-20T08:40:06.917Z,8.98
2023-02-20T08:41:35.469Z,9.12
2023-02-20T08:42:58.135Z,9.16
2023-02-20T08:44:32.181Z,9.27
2023-02-20T08:46:00.026Z,9.35
2023-02-20T08:47:33.164Z,9.46
2023-02-20T08:48:57.294Z,9.48
2023-02-20T08:50:24.901Z,9.58
2023-02-20T08:51:57.691Z,9.68
2023-02-20T08:54:05.712Z,9.84
2023-02-20T08:55:29.674Z,10.08
2023-02-20T08:57:00.984Z,10.33
2023-02-20T09:01:06.028Z,10.76
2023-02-20T09:02:33.365Z,10.86
2023-02-20T09:06:26.638Z,10.95
2023-02-20T09:08:20.272Z,10.90
2023-02-20T09:09:51.242Z,10.88
2023-02-20T09:11:17.528Z,10.91
2023-02-20T09:12:45.942Z,10.85
2023-02-20T09:14:10.894Z,10.96
2023-02-20T09:15:52.428Z,10.90
2023-02-20T09:17:23.635Z,10.92
2023-02-20T09:19:40.909Z,10.96
2023-02-20T09:21:16.220Z,11.03
2023-02-20T09:22:45.921Z,11.05
2023-02-20T09:24:16.115Z,11.12
2023-02-20T09:25:57.513Z,11.18
2023-02-20T09:27:30.830Z,11.32
2023-02-20T09:28:53.341Z,11.33
2023-02-20T09:30:34.772Z,11.31
2023-02-20T09:32:08.046Z,11.34
2023-02-20T09:33:52.173Z,11.33
2023-02-20T09:36:04.981Z,11.41
2023-02-20T09:37:41.566Z,11.75
2023-02-20T09:39:35.326Z,11.95
2023-02-20T09:41:01.270Z,12.05
2023-02-20T09:42:44.201Z,12.13
2023-02-20T09:44:14.531Z,12.25
2023-02-20T09:45:44.610Z,12.28
2023-02-20T09:47:37.923Z,12.31
2023-02-20T09:49:21.961Z,12.33
2023-02-20T09:50:47.601Z,12.35
2023-02-20T09:52:19.945Z,12.47
2023-02-20T09:54:07.002Z,12.56
2023-02-20T09:55:45.261Z,12.64
2023-02-20T09:57:23.323Z,12.64
2023-02-20T09:59:19.469Z,12.44
2023-02-20T10:00:47.170Z,12.32
2023-02-20T10:02:17.953Z,12.35
2023-02-20T10:03:58.998Z,12.34
2023-02-20T10:05:24.452Z,12.36
2023-02-20T10:06:50.394Z,12.49
2023-02-20T10:09:17.095Z,12.53
2023-02-20T10:10:48.849Z,12.40
2023-02-20T10:12:41.351Z,12.38
2023-02-20T10:14:30.758Z,12.32
2023-02-20T10:16:06.937Z,12.24
2023-02-20T10:17:57.424Z,12.21
2023-02-20T10:19:26.767Z,12.25
2023-02-20T10:24:04.713Z,12.46
2023-02-20T10:25:34.376Z,12.70
2023-02-20T10:51:39.715Z,13.68
2023-02-20T10:52:44.199Z,13.81
2023-02-20T10:54:14.645Z,13.89
2023-02-20T11:02:00.294Z,13.98
2023-02-20T11:03:58.105Z,13.91
2023-02-20T11:05:29.051Z,13.89
2023-02-20T11:07:03.344Z,13.85
2023-02-20T11:08:33.321Z,13.85
2023-02-20T11:10:00.761Z,13.86
2023-02-20T11:11:41.107Z,13.81
2023-02-20T11:13:14.554Z,13.76
2023-02-20T11:14:48.477Z,13.83
2023-02-20T11:16:27.811Z,13.76
2023-02-20T11:17:53.330Z,13.78
2023-02-20T11:19:23.377Z,13.86
2023-02-20T11:20:59.983Z,13.78
2023-02-20T11:22:48.914Z,13.79
2023-02-20T11:24:33.989Z,13.83
2023-02-20T11:26:32.175Z,13.85
2023-02-20T11:28:03.101Z,13.89
2023-02-20T11:29:34.599Z,13.94
2023-02-20T11:31:05.398Z,14.05
2023-02-20T11:34:18.124Z,14.15
2023-02-20T11:35:44.625Z,14.19
2023-02-20T11:37:13.724Z,14.17
2023-02-20T11:38:46.273Z,14.14
2023-02-20T11:40:21.697Z,14.22
2023-02-20T11:41:44.260Z,14.27
2023-02-20T11:43:12.565Z,14.22
2023-02-20T11:44:35.346Z,14.28
2023-02-20T11:46:12.703Z,14.19
2023-02-20T11:47:38.658Z,14.27
2023-02-20T11:49:05.473Z,14.26
2023-02-20T11:50:48.531Z,14.22
2023-02-20T11:52:28.342Z,14.25
2023-02-20T11:54:09.251Z,14.32
2023-02-20T11:55:41.126Z,14.31
2023-02-20T11:57:28.176Z,14.26
2023-02-20T11:58:58.186Z,14.26
2023-02-20T12:00:53.191Z,14.22
2023-02-20T12:02:32.561Z,14.33
2023-02-20T12:04:00.134Z,14.33
2023-02-20T12:05:34.716Z,14.36
2023-02-20T12:06:57.646Z,14.31
2023-02-20T12:08:35.820Z,14.35
2023-02-20T12:10:06.134Z,14.37
2023-02-20T12:11:32.104Z,14.37
2023-02-20T12:12:54.699Z,14.41
2023-02-20T12:14:20.651Z,14.43
2023-02-20T12:15:49.507Z,14.36
2023-02-20T12:17:26.757Z,14.36
2023-02-20T12:18:56.512Z,14.38
2023-02-20T12:20:38.039Z,14.39
2023-02-20T12:22:18.949Z,14.26
2023-02-20T12:23:50.156Z,14.24
2023-02-20T12:25:28.975Z,14.22
2023-02-20T12:27:10.516Z,14.31
2023-02-20T12:28:42.499Z,14.33
2023-02-20T12:30:55.682Z,14.33
2023-02-20T12:32:32.924Z,14.33
2023-02-20T12:34:23.535Z,14.19
2023-02-20T12:36:05.628Z,14.16
2023-02-20T12:37:43.354Z,14.05
2023-02-20T12:39:26.104Z,13.90
2023-02-20T12:41:11.251Z,13.84
2023-02-20T12:42:40.550Z,13.77
2023-02-20T12:44:24.501Z,13.63
2023-02-20T12:45:56.637Z,13.55
2023-02-20T12:47:28.671Z,13.47
2023-02-20T12:49:22.886Z,13.34
2023-02-20T12:51:04.155Z,13.33
2023-02-20T12:52:46.265Z,13.30
2023-02-20T12:54:24.370Z,13.30
2023-02-20T12:56:13.887Z,13.33
2023-02-20T12:57:51.749Z,13.33
2023-02-20T12:59:26.540Z,13.39
2023-02-20T13:00:52.623Z,13.46
2023-02-20T13:02:40.608Z,13.47
2023-02-20T13:04:30.599Z,13.42
2023-02-20T13:06:04.589Z,13.50
2023-02-20T13:11:08.343Z,13.56
2023-02-20T13:12:58.055Z,13.54
2023-02-20T13:14:54.591Z,13.48
2023-02-20T13:28:56.539Z,13.05
2023-02-20T13:38:11.954Z,12.94
2023-02-20T13:40:27.594Z,12.90
2023-02-20T13:42:24.162Z,12.79
2023-02-20T13:44:28.446Z,12.75
2023-02-20T13:46:57.731Z,12.76
2023-02-20T13:48:43.631Z,12.78
2023-02-20T13:50:57.182Z,12.80
2023-02-20T13:52:43.453Z,12.73
2023-02-20T13:54:48.675Z,12.68
2023-02-20T13:56:52.885Z,12.65
2023-02-20T13:58:38.434Z,12.67
2023-02-20T14:00:26.900Z,12.65
2023-02-20T14:04:30.313Z,12.71
2023-02-20T14:06:18.272Z,12.67
2023-02-20T14:07:49.205Z,12.73
2023-02-20T14:10:27.080Z,12.76
2023-02-20T14:12:11.131Z,12.74
2023-02-20T14:13:48.661Z,12.79
2023-02-20T14:16:24.024Z,12.85
2023-02-20T14:17:46.594Z,12.85
2023-02-20T14:19:28.235Z,12.79
2023-02-20T14:21:00.697Z,12.83
2023-02-20T14:22:40.516Z,12.80
2023-02-20T14:24:19.815Z,12.87
2023-02-20T14:25:52.054Z,12.95
2023-02-20T14:27:37.424Z,12.92
2023-02-20T14:29:23.541Z,12.88
2023-02-20T14:30:48.765Z,13.00
2023-02-20T14:32:59.588Z,12.99
2023-02-20T14:39:53.917Z,13.04
2023-02-20T14:42:10.958Z,12.95
2023-02-20T14:43:36.038Z,13.03
2023-02-20T14:45:06.348Z,13.04
2023-02-20T14:46:35.939Z,13.04
2023-02-20T14:48:05.570Z,12.96
2023-02-20T14:49:39.691Z,13.02
2023-02-20T14:54:58.755Z,12.97
2023-02-20T14:56:25.389Z,12.94
2023-02-20T15:00:51.127Z,12.92
2023-02-20T15:01:37.758Z,12.91
2023-02-20T15:04:36.222Z,12.81
2023-02-20T15:08:20.833Z,12.67
2023-02-20T15:10:06.662Z,12.62
2023-02-20T15:11:34.173Z,12.66
2023-02-20T15:12:59.299Z,12.63
2023-02-20T15:14:25.430Z,12.59
2023-02-20T15:15:53.479Z,12.52
2023-02-20T15:17:29.019Z,12.55
2023-02-20T15:24:39.282Z,12.28
2023-02-20T15:27:24.739Z,12.25
2023-02-20T15:30:20.440Z,12.22
2023-02-20T15:32:49.027Z,12.06
2023-02-20T15:38:10.413Z,12.03
2023-02-20T15:45:02.523Z,11.82
2023-02-20T15:47:11.831Z,11.80
2023-02-20T15:51:34.055Z,11.75
2023-02-20T15:53:10.432Z,11.75
2023-02-20T15:54:59.101Z,11.80
2023-02-20T15:56:22.251Z,11.77
2023-02-20T16:00:22.109Z,11.73
2023-02-20T16:04:40.620Z,11.79
2023-02-20T16:06:39.167Z,11.80
2023-02-20T16:08:04.427Z,11.82
2023-02-20T16:10:24.712Z,11.76
2023-02-20T16:12:26.132Z,11.80
2023-02-20T16:14:25.178Z,11.85
2023-02-20T16:16:02.143Z,11.82
2023-02-20T16:19:41.796Z,11.87
2023-02-20T16:20:41.443Z,11.81
2023-02-20T16:22:37.042Z,11.83
2023-02-20T16:24:00.414Z,11.79
2023-02-20T16:26:11.198Z,11.78
2023-02-20T16:27:34.171Z,11.85
2023-02-20T16:29:02.365Z,11.90
2023-02-20T16:30:38.501Z,11.89
2023-02-20T16:32:42.981Z,11.89
2023-02-20T16:35:21.896Z,11.88
2023-02-20T16:38:53.276Z,11.82
2023-02-20T16:40:21.403Z,11.81
2023-02-20T16:41:48.067Z,11.83
2023-02-20T16:43:37.636Z,11.83
2023-02-20T16:45:53.792Z,11.82
2023-02-20T16:47:39.793Z,11.84
2023-02-20T16:52:45.449Z,11.73
2023-02-20T16:54:17.384Z,11.73
2023-02-20T16:58:12.971Z,11.72
2023-02-20T16:58:21.464Z,11.64
2023-02-20T16:59:44.772Z,11.69
2023-02-20T17:01:10.211Z,11.67
2023-02-20T17:02:53.820Z,11.71
2023-02-20T17:04:37.911Z,11.67
2023-02-20T17:06:10.750Z,11.70
2023-02-20T17:07:56.755Z,11.68
2023-02-20T17:09:33.852Z,11.68
2023-02-20T17:14:37.629Z,11.55
2023-02-20T17:16:00.955Z,11.59
2023-02-20T17:26:28.824Z,11.43
2023-02-20T17:28:01.208Z,11.38
2023-02-20T17:30:09.601Z,11.35
2023-02-20T17:31:52.933Z,11.34
2023-02-20T17:34:01.495Z,11.39
2023-02-20T17:35:24.155Z,11.31
2023-02-20T17:40:50.295Z,11.30
2023-02-20T17:43:12.839Z,11.21
2023-02-20T17:44:48.043Z,11.19
2023-02-20T17:46:20.744Z,11.23
2023-02-20T17:48:20.806Z,11.20
2023-02-20T17:49:53.432Z,11.18
2023-02-20T17:51:55.629Z,11.14
2023-02-20T17:53:35.216Z,11.10
2023-02-20T17:55:49.127Z,11.07
2023-02-20T17:59:42.110Z,11.09
2023-02-20T18:01:14.161Z,11.07
2023-02-20T18:02:39.244Z,11.04
2023-02-20T18:04:04.779Z,10.99
2023-02-20T18:05:42.931Z,11.01
2023-02-20T18:07:30.310Z,10.95
2023-02-20T18:09:09.436Z,10.88
2023-02-20T18:17:21.099Z,10.68
2023-02-20T18:19:26.937Z,10.62
2023-02-20T18:28:32.459Z,10.54
2023-02-20T18:31:25.638Z,10.54
2023-02-20T18:34:02.150Z,10.53
2023-02-20T19:24:57.397Z,10.62
2023-02-20T20:15:37.053Z,10.56
2023-02-20T20:17:09.458Z,10.63
2023-02-20T20:18:59.581Z,10.65
2023-02-20T20:20:39.294Z,10.68
2023-02-20T20:22:35.330Z,10.68
2023-02-20T20:25:12.414Z,10.68
2023-02-20T20:27:20.821Z,10.67
2023-02-20T20:28:45.064Z,10.64
2023-02-20T20:30:21.128Z,10.69
2023-02-20T20:31:46.554Z,10.71
2023-02-20T20:33:18.632Z,10.69
2023-02-20T20:34:49.488Z,10.70
2023-02-20T20:36:13.559Z,10.74
2023-02-20T20:39:52.880Z,10.69
2023-02-20T20:41:30.389Z,10.70
2023-02-20T20:43:07.315Z,10.78
2023-02-20T20:44:39.591Z,10.77
2023-02-20T20:47:07.710Z,10.70
2023-02-20T20:51:06.057Z,10.75
2023-02-20T20:52:53.753Z,10.78
2023-02-20T20:54:45.776Z,10.80
2023-02-20T20:56:55.628Z,10.77
2023-02-20T21:02:25.413Z,10.77
2023-02-20T21:12:31.399Z,10.71
2023-02-20T21:19:58.365Z,10.62
2023-02-20T21:21:28.324Z,10.70
2023-02-20T21:23:49.619Z,10.62
2023-02-20T21:25:26.430Z,10.62
2023-02-20T21:27:29.128Z,10.62
2023-02-20T21:36:59.579Z,10.64
2023-02-20T21:38:25.686Z,10.67
2023-02-20T21:40:01.900Z,10.66
2023-02-20T21:41:55.332Z,10.64
2023-02-20T21:43:56.004Z,10.67
2023-02-20T21:45:42.657Z,10.62
2023-02-20T21:47:16.440Z,10.62
2023-02-20T21:48:45.691Z,10.64
2023-02-20T21:53:05.459Z,10.64
2023-02-20T21:54:56.127Z,10.64
2023-02-20T21:56:24.595Z,10.68
2023-02-20T21:58:11.187Z,10.64
2023-02-20T21:59:44.126Z,10.70
2023-02-20T22:01:11.473Z,10.73
2023-02-20T22:02:48.957Z,10.74
2023-02-20T22:06:50.442Z,10.70
2023-02-20T22:08:41.874Z,10.73
2023-02-20T22:16:03.633Z,10.73
2023-02-20T22:18:02.914Z,10.68
2023-02-20T22:19:45.677Z,10.68
2023-02-20T22:30:15.386Z,10.61
2023-02-20T22:32:34.856Z,10.60
2023-02-20T22:34:46.575Z,10.57
2023-02-20T22:36:48.115Z,10.64
2023-02-20T22:38:40.510Z,10.57
2023-02-20T22:40:20.019Z,10.62
2023-02-20T22:42:09.116Z,10.61
2023-02-20T22:43:51.368Z,10.61
2023-02-20T22:48:08.071Z,10.65
2023-02-20T22:49:54.929Z,10.61
2023-02-20T22:51:50.094Z,10.62
2023-02-20T22:53:30.705Z,10.66
2023-02-20T22:55:10.034Z,10.67
2023-02-20T22:56:49.476Z,10.67
2023-02-20T22:58:29.023Z,10.67
2023-02-20T23:00:10.971Z,10.63
2023-02-20T23:01:55.537Z,10.68
2023-02-20T23:03:37.214Z,10.65
2023-02-20T23:05:16.839Z,10.61
2023-02-20T23:06:56.373Z,10.68
2023-02-20T23:08:36.323Z,10.63
2023-02-20T23:10:18.155Z,10.68
2023-02-20T23:11:58.267Z,10.69
2023-02-20T23:13:41.274Z,10.67
2023-02-20T23:15:21.567Z,10.69
2023-02-20T23:17:01.112Z,10.69
2023-02-20T23:18:46.125Z,10.68
2023-02-20T23:20:29.138Z,10.67
2023-02-20T23:22:08.988Z,10.68
2023-02-20T23:23:50.655Z,10.68
2023-02-20T23:25:30.855Z,10.67
2023-02-20T23:29:51.569Z,10.59
2023-02-20T23:34:45.330Z,10.62
2023-02-20T23:36:34.943Z,10.63
2023-02-20T23:38:20.926Z,10.58
2023-02-20T23:43:27.216Z,10.61
2023-02-20T23:49:54.498Z,10.57
2023-02-20T23:51:35.822Z,10.57
2023-02-20T23:53:17.658Z,10.57
